createdAt,value
2017-08-10T00:00:07.155Z,1017.367
2017-08-10T00:03:02.423Z,1017.361
2017-08-10T00:05:57.607Z,1017.388
2017-08-10T00:08:52.951Z,1017.425
2017-08-10T00:11:48.127Z,1017.409
2017-08-10T00:14:43.360Z,1017.535
2017-08-10T00:17:38.504Z,1017.579
2017-08-10T00:20:33.718Z,1017.541
2017-08-10T00:23:29.026Z,1017.551
2017-08-10T00:26:24.219Z,1017.506
2017-08-10T00:29:19.766Z,1017.593
2017-08-10T00:32:15.063Z,1017.714
2017-08-10T00:35:10.263Z,1017.763
2017-08-10T00:38:05.530Z,1017.790
2017-08-10T00:41:00.664Z,1017.772
2017-08-10T00:43:55.977Z,1017.712
2017-08-10T00:46:51.215Z,1017.689
2017-08-10T00:52:41.548Z,1017.508
2017-08-10T00:55:36.710Z,1017.505
2017-08-10T00:58:31.957Z,1017.574
2017-08-10T01:07:17.407Z,1017.943
2017-08-10T01:10:12.510Z,1018.077
2017-08-10T01:13:07.728Z,1018.201
2017-08-10T01:16:03.037Z,1018.340
2017-08-10T01:18:58.284Z,1018.498
2017-08-10T01:21:53.340Z,1018.588
2017-08-10T01:24:59.709Z,1018.656
2017-08-10T01:27:50.095Z,1018.681
2017-08-10T01:30:45.212Z,1018.751
2017-08-10T01:33:40.374Z,1018.800
2017-08-10T01:39:58.868Z,1018.905
2017-08-10T01:42:54.642Z,1018.898
2017-08-10T01:47:14.910Z,1018.898
2017-08-10T07:56:56.317Z,1019.034
2017-08-10T08:01:33.313Z,1019.060
2017-08-10T08:05:59.669Z,1019.023
2017-08-10T08:09:41.009Z,1019.057
2017-08-10T08:16:46.624Z,1019.246
2017-08-10T08:19:30.798Z,1019.175
2017-08-10T08:22:36.492Z,1019.186
2017-08-10T08:28:38.928Z,1019.171
2017-08-10T08:31:23.456Z,1019.226
2017-08-10T08:48:02.714Z,1019.297
2017-08-10T08:53:52.093Z,1019.373
2017-08-10T08:58:35.288Z,1019.370
2017-08-10T09:10:33.875Z,1019.469
2017-08-10T09:13:29.247Z,1019.442
2017-08-10T09:16:19.081Z,1019.459
2017-08-10T09:22:24.979Z,1019.337
2017-08-10T09:25:20.217Z,1019.264
2017-08-10T09:28:15.829Z,1019.271
2017-08-10T09:31:11.066Z,1019.248
2017-08-10T09:34:06.415Z,1019.178
2017-08-10T09:39:57.476Z,1019.128
2017-08-10T09:42:53.053Z,1019.106
2017-08-10T09:45:48.897Z,1019.116
2017-08-10T09:48:44.758Z,1019.072
2017-08-10T09:51:40.636Z,1019.076
2017-08-10T09:54:36.535Z,1019.072
2017-08-10T09:57:32.432Z,1019.028
2017-08-10T10:00:28.448Z,1019.060
2017-08-10T10:03:24.450Z,1019.057
2017-08-10T10:06:20.501Z,1018.898
2017-08-10T10:09:16.439Z,1018.906
2017-08-10T10:12:12.500Z,1018.823
2017-08-10T10:15:08.652Z,1018.699
2017-08-10T10:18:04.721Z,1018.663
2017-08-10T10:21:00.815Z,1018.647
2017-08-10T10:23:56.883Z,1018.579
2017-08-10T10:26:52.945Z,1018.564
2017-08-10T10:29:48.981Z,1018.514
2017-08-10T10:32:45.022Z,1018.571
2017-08-10T10:35:40.744Z,1018.551
2017-08-10T10:41:31.810Z,1018.553
2017-08-10T10:44:27.010Z,1018.591
2017-08-10T10:47:22.305Z,1018.641
2017-08-10T10:50:17.612Z,1018.652
2017-08-10T10:56:08.145Z,1018.642
2017-08-10T10:59:03.365Z,1018.588
2017-08-10T11:01:58.695Z,1018.535
2017-08-10T11:04:53.850Z,1018.457
2017-08-10T11:07:49.107Z,1018.444
2017-08-10T11:10:44.406Z,1018.407
2017-08-10T11:13:39.517Z,1018.371
2017-08-10T11:16:34.629Z,1018.395
2017-08-10T11:19:29.716Z,1018.444
2017-08-10T11:22:25.027Z,1018.477
2017-08-10T11:25:20.285Z,1018.490
2017-08-10T11:28:15.313Z,1018.438
2017-08-10T11:31:10.615Z,1018.472
2017-08-10T11:34:06.102Z,1018.448
2017-08-10T11:37:01.333Z,1018.477
2017-08-10T11:39:56.722Z,1018.418
2017-08-10T11:42:51.891Z,1018.511
2017-08-10T11:45:47.134Z,1018.567
2017-08-10T11:48:42.286Z,1018.512
2017-08-10T11:51:37.506Z,1018.503
2017-08-10T11:54:32.676Z,1018.469
2017-08-10T11:57:27.805Z,1018.453
2017-08-10T12:00:22.920Z,1018.357
2017-08-10T12:03:18.071Z,1018.441
2017-08-10T12:06:13.084Z,1018.481
2017-08-10T12:09:08.240Z,1018.542
2017-08-10T12:12:03.417Z,1018.506
2017-08-10T12:14:58.669Z,1018.506
2017-08-10T12:17:53.640Z,1018.458
2017-08-10T12:20:48.853Z,1018.422
2017-08-10T12:26:39.024Z,1018.452
2017-08-10T12:29:34.296Z,1018.413
2017-08-10T12:32:29.612Z,1018.295
2017-08-10T12:35:24.865Z,1018.308
2017-08-10T12:38:20.219Z,1018.342
2017-08-10T12:41:15.506Z,1018.379
2017-08-10T12:44:10.692Z,1018.384
2017-08-10T12:47:06.145Z,1018.344
2017-08-10T12:50:01.621Z,1018.315
2017-08-10T12:52:57.060Z,1018.211
2017-08-10T12:55:52.637Z,1018.155
2017-08-10T12:58:47.984Z,1018.205
2017-08-10T13:01:43.425Z,1018.215
2017-08-10T13:04:38.896Z,1018.137
2017-08-10T13:07:34.376Z,1018.116
2017-08-10T13:10:29.864Z,1018.126
2017-08-10T13:16:20.576Z,1018.069
2017-08-10T13:19:15.929Z,1018.022
2017-08-10T13:22:11.340Z,1018.032
2017-08-10T13:25:06.677Z,1018.032
2017-08-10T13:28:02.111Z,1017.990
2017-08-10T13:30:57.636Z,1017.926
2017-08-10T13:33:52.933Z,1017.943
2017-08-10T13:36:48.397Z,1017.975
2017-08-10T13:39:43.680Z,1018.007
2017-08-10T13:42:38.979Z,1018.006
2017-08-10T13:45:34.321Z,1017.960
2017-08-10T13:48:29.696Z,1017.922
2017-08-10T13:51:24.970Z,1017.840
2017-08-10T13:54:20.349Z,1017.874
2017-08-10T13:57:15.768Z,1017.910
2017-08-10T14:00:11.146Z,1017.904
2017-08-10T14:03:06.427Z,1017.951
2017-08-10T14:06:02.327Z,1018.006
2017-08-10T14:08:57.783Z,1017.954
2017-08-10T14:11:53.204Z,1018.019
2017-08-10T14:14:48.564Z,1017.962
2017-08-10T14:17:43.865Z,1017.891
2017-08-10T14:20:39.254Z,1017.851
2017-08-10T14:23:34.590Z,1017.773
2017-08-10T14:29:25.326Z,1017.854
2017-08-10T14:32:20.568Z,1017.847
2017-08-10T14:35:15.931Z,1017.944
2017-08-10T14:38:11.306Z,1018.024
2017-08-10T14:41:06.690Z,1018.047
2017-08-10T14:44:02.183Z,1018.074
2017-08-10T14:46:57.495Z,1018.031
2017-08-10T14:49:52.988Z,1017.953
2017-08-10T14:52:48.342Z,1017.994
2017-08-10T14:55:43.617Z,1017.977
2017-08-10T14:58:38.990Z,1017.971
2017-08-10T15:01:34.367Z,1017.848
2017-08-10T15:04:29.763Z,1017.815
2017-08-10T15:07:25.008Z,1017.790
2017-08-10T15:10:20.306Z,1017.747
2017-08-10T15:13:15.659Z,1017.778
2017-08-10T15:16:11.036Z,1017.741
2017-08-10T15:19:06.437Z,1017.690
2017-08-10T15:22:01.834Z,1017.745
2017-08-10T15:24:57.250Z,1017.704
2017-08-10T15:27:52.637Z,1017.713
2017-08-10T15:30:48.041Z,1017.676
2017-08-10T15:33:43.457Z,1017.676
2017-08-10T15:36:38.829Z,1017.584
2017-08-10T15:39:34.126Z,1017.620
2017-08-10T15:42:29.513Z,1017.647
2017-08-10T15:45:25.022Z,1017.684
2017-08-10T15:48:20.390Z,1017.707
2017-08-10T15:51:15.887Z,1017.590
2017-08-10T15:54:11.416Z,1017.542
2017-08-10T15:57:06.698Z,1017.551
2017-08-10T16:00:02.149Z,1017.521
2017-08-10T16:02:57.502Z,1017.423
2017-08-10T16:05:52.891Z,1017.282
2017-08-10T16:08:48.218Z,1017.335
2017-08-10T16:11:43.601Z,1017.282
2017-08-10T16:14:39.301Z,1017.373
2017-08-10T16:17:34.710Z,1017.380
2017-08-10T16:20:30.275Z,1017.472
2017-08-10T16:23:25.679Z,1017.457
2017-08-10T16:26:20.997Z,1017.433
2017-08-10T16:29:16.378Z,1017.411
2017-08-10T16:32:11.681Z,1017.423
2017-08-10T16:38:02.495Z,1017.503
2017-08-10T16:40:57.717Z,1017.441
2017-08-10T16:43:53.130Z,1017.468
2017-08-10T16:46:48.522Z,1017.384
2017-08-10T16:49:43.897Z,1017.419
2017-08-10T16:52:39.256Z,1017.383
2017-08-10T16:55:34.582Z,1017.407
2017-08-10T16:58:29.931Z,1017.492
2017-08-10T17:01:25.225Z,1017.431
2017-08-10T17:04:20.609Z,1017.536
2017-08-10T17:07:16.015Z,1017.458
2017-08-10T17:10:11.270Z,1017.502
2017-08-10T17:13:06.765Z,1017.539
2017-08-10T17:18:57.504Z,1017.501
2017-08-10T17:24:48.273Z,1017.594
2017-08-10T17:27:43.640Z,1017.647
2017-08-10T17:30:39.006Z,1017.577
2017-08-10T17:33:34.349Z,1017.616
2017-08-10T17:36:29.676Z,1017.735
2017-08-10T17:39:24.975Z,1017.702
2017-08-10T17:42:20.290Z,1017.718
2017-08-10T17:45:15.679Z,1017.572
2017-08-10T17:48:10.951Z,1017.383
2017-08-10T17:51:06.299Z,1017.462
2017-08-10T17:54:01.534Z,1017.297
2017-08-10T17:56:56.988Z,1017.312
2017-08-10T17:59:52.584Z,1017.334
2017-08-10T18:02:47.985Z,1017.471
2017-08-10T18:05:43.749Z,1017.454
2017-08-10T18:08:39.109Z,1017.595
2017-08-10T18:11:34.461Z,1017.513
2017-08-10T18:14:29.748Z,1017.511
2017-08-10T18:17:25.072Z,1017.534
2017-08-10T18:20:20.365Z,1017.475
2017-08-10T18:23:15.676Z,1017.438
2017-08-10T18:29:06.274Z,1017.488
2017-08-10T18:32:01.592Z,1017.450
2017-08-10T18:34:56.944Z,1017.363
2017-08-10T18:40:47.616Z,1017.314
2017-08-10T18:43:42.983Z,1017.346
2017-08-10T18:46:38.406Z,1017.416
2017-08-10T18:49:33.644Z,1017.366
2017-08-10T18:52:28.897Z,1017.464
2017-08-10T18:55:24.170Z,1017.408
2017-08-10T18:58:19.513Z,1017.434
2017-08-10T19:01:14.856Z,1017.380
2017-08-10T19:04:10.145Z,1017.468
2017-08-10T19:07:05.365Z,1017.607
2017-08-10T19:10:00.639Z,1017.594
2017-08-10T19:12:55.928Z,1017.557
2017-08-10T19:15:51.253Z,1017.563
2017-08-10T19:18:46.457Z,1017.625
2017-08-10T19:21:41.849Z,1017.643
2017-08-10T19:27:32.408Z,1017.642
2017-08-10T19:30:27.547Z,1017.634
2017-08-10T19:33:22.821Z,1017.730
2017-08-10T19:36:17.994Z,1017.737
2017-08-10T19:39:13.278Z,1017.654
2017-08-10T19:42:08.493Z,1017.778
2017-08-10T19:47:58.925Z,1017.633
2017-08-10T19:50:53.996Z,1017.581
2017-08-10T19:53:49.157Z,1017.543
2017-08-10T19:56:44.338Z,1017.514
2017-08-10T19:59:39.393Z,1017.541
2017-08-10T20:02:34.627Z,1017.557
2017-08-10T20:05:29.846Z,1017.584
2017-08-10T20:08:25.007Z,1017.494
2017-08-10T20:11:20.029Z,1017.434
2017-08-10T20:14:15.247Z,1017.469
2017-08-10T20:17:10.456Z,1017.491
2017-08-10T20:20:05.642Z,1017.286
2017-08-10T20:23:00.774Z,1017.313
2017-08-10T20:25:55.935Z,1017.206
2017-08-10T20:28:51.034Z,1017.300
2017-08-10T20:31:46.253Z,1017.305
2017-08-10T20:34:41.421Z,1017.279
2017-08-10T20:37:36.651Z,1017.165
2017-08-10T20:40:31.907Z,1017.124
2017-08-10T20:43:26.998Z,1017.060
2017-08-10T20:46:22.143Z,1017.113
2017-08-10T20:49:17.789Z,1016.995
2017-08-10T20:52:12.987Z,1016.919
2017-08-10T20:55:08.115Z,1016.914
2017-08-10T20:58:03.204Z,1016.811
2017-08-10T21:00:58.351Z,1016.825
2017-08-10T21:06:48.823Z,1016.662
2017-08-10T21:09:44.001Z,1016.663
2017-08-10T21:12:39.169Z,1016.631
2017-08-10T21:15:34.282Z,1016.658
2017-08-10T21:18:29.390Z,1016.724
2017-08-10T21:21:24.502Z,1016.776
2017-08-10T21:24:19.590Z,1016.760
2017-08-10T21:27:14.673Z,1016.864
2017-08-10T21:30:09.831Z,1016.819
2017-08-10T21:33:04.910Z,1016.837
2017-08-10T21:36:00.089Z,1016.969
2017-08-10T21:38:55.216Z,1017.097
2017-08-10T21:41:50.277Z,1017.153
2017-08-10T21:44:45.354Z,1017.089
2017-08-10T21:47:40.410Z,1017.148
2017-08-10T21:50:35.508Z,1017.135
2017-08-10T21:53:30.655Z,1017.126
2017-08-10T21:56:25.779Z,1017.150
2017-08-10T21:59:20.945Z,1017.208
2017-08-10T22:02:16.019Z,1017.108
2017-08-10T22:05:11.138Z,1017.079
2017-08-10T22:08:06.138Z,1017.061
2017-08-10T22:11:01.227Z,1016.977
2017-08-10T22:13:56.568Z,1017.035
2017-08-10T22:16:51.745Z,1017.104
2017-08-10T22:19:46.821Z,1017.066
2017-08-10T22:22:41.819Z,1017.138
2017-08-10T22:25:36.902Z,1017.352
2017-08-10T22:29:05.990Z,1017.494
2017-08-10T22:32:38.218Z,1017.575
2017-08-10T22:46:29.722Z,1017.563
2017-08-10T22:49:47.552Z,1017.446
2017-08-10T23:00:17.307Z,1017.081
2017-08-10T23:03:01.159Z,1016.913
